Latest Weather Observations for St Helens

IDT60801

Issued at 8:01 am EST Friday 6 May 2016 (issued every 30 minutes, with the page automatically refreshed every 10 minutes)

About weather observations | Map of weather stations | Latest weather observations for TAS | Other Formats
Station Details ID: 092120 Name: ST HELENS AERODROME Lat: -41.34 Lon: 148.28 Height: 48.0 m
Data from the previous 72 hours. | See also: Recent months at St Helens
Date/Time
EST
Temp
°C
App
Temp
°C
Dew
Point
Rel
Hum
%
Delta-T
°C
Wind Press
QNH
hPa
Press
MSL
hPa
Rain
since 9 am
mm
Dir
 
Spd
km/h
Gust
km/h
Spd
kts
Gust
kts
06/08:00am 18.6 15.6 13.7 73 2.8 WNW 22 39 12 21 1009.6 - 0.0
06/07:30am 18.3 15.5 13.2 72 2.9 WNW 20 41 11 22 1009.3 - 0.0
06/07:00am 18.0 16.1 12.9 72 2.9 WNW 15 35 8 19 1009.0 - 0.0
06/06:30am 18.2 16.2 12.6 70 3.1 W 15 43 8 23 1008.5 - 0.0
06/06:00am 18.6 15.6 12.6 68 3.4 NW 20 32 11 17 1008.1 1008.2 0.0
06/05:30am 18.4 15.4 12.6 69 3.2 NW 20 33 11 18 1007.7 - 0.0
06/05:00am 18.4 15.0 12.4 68 3.3 NW 22 39 12 21 1007.4 - 0.0
06/04:30am 18.1 14.3 12.5 70 3.1 NW 24 43 13 23 1007.1 - 0.0
06/04:07am 18.3 13.8 12.7 70 3.1 NW 28 46 15 25 1006.9 - 0.0
06/04:00am 18.1 14.8 12.8 71 3.0 NNW 22 41 12 22 1006.9 - 0.0
06/03:30am 17.8 14.2 12.9 73 2.7 NNW 24 43 13 23 1007.0 - 0.0
06/03:00am 17.5 13.9 13.2 76 2.4 NW 24 35 13 19 1007.3 1007.4 0.0
06/02:30am 17.3 12.7 13.4 78 2.2 NNW 30 50 16 27 1007.3 - 0.0
06/02:00am 17.1 12.1 13.4 79 2.1 NW 32 54 17 29 1007.3 - 0.0
06/01:30am 17.2 11.9 13.1 77 2.3 NW 33 57 18 31 1007.3 - 0.0
06/01:00am 17.2 11.1 13.1 77 2.3 NW 37 61 20 33 1007.3 - 0.0
06/12:34am 17.1 11.1 13.2 78 2.2 NW 37 56 20 30 1007.3 - 0.0
06/12:30am 17.1 11.5 13.2 78 2.2 NW 35 52 19 28 1007.4 - 0.0
06/12:00am 17.0 11.3 13.1 78 2.2 NW 35 70 19 38 1007.5 1007.6 0.0
 
Date/Time
EST
Temp
°C
App
Temp
°C
Dew
Point
Rel
Hum
%
Delta-T
°C
Wind Press
QNH
hPa
Press
MSL
hPa
Rain
since 9 am
mm
Dir
 
Spd
km/h
Gust
km/h
Spd
kts
Gust
kts
05/11:54pm 17.1 11.8 13.2 78 2.2 NW 33 70 18 38 1007.6 - 0.0
05/11:30pm 17.0 12.7 13.1 78 2.2 NNW 28 50 15 27 1008.1 - 0.0
05/11:17pm 17.0 12.6 12.9 77 2.3 NNW 28 56 15 30 1008.3 - 0.0
05/11:00pm 17.1 13.4 12.8 76 2.4 NNW 24 39 13 21 1008.6 - 0.0
05/10:48pm 17.2 12.8 12.9 76 2.4 NNW 28 50 15 27 1008.8 - 0.0
05/10:30pm 16.8 13.5 12.9 78 2.2 NNW 22 39 12 21 1009.1 - 0.0
05/10:00pm 17.0 13.4 12.9 77 2.3 NNW 24 44 13 24 1009.4 - 0.0
05/09:30pm 17.1 13.4 12.8 76 2.4 NNW 24 37 13 20 1009.7 - 0.0
05/09:00pm 17.0 14.6 12.5 75 2.5 NNW 17 32 9 17 1009.8 1009.8 0.0
05/08:30pm 17.1 13.7 12.4 74 2.6 NNW 22 37 12 20 1009.9 - 0.0
05/08:00pm 17.0 13.2 12.3 74 2.6 NNW 24 48 13 26 1009.8 - 0.0
05/07:30pm 17.1 12.5 12.2 73 2.7 NW 28 48 15 26 1009.9 - 0.0
05/07:19pm 17.3 12.7 12.2 72 2.8 NW 28 48 15 26 1009.8 - 0.0
05/07:00pm 17.2 13.2 11.9 71 2.9 NNW 24 39 13 21 1009.7 - 0.0
05/06:30pm 17.2 13.6 11.7 70 3.0 NNW 22 46 12 25 1009.6 - 0.0
05/06:00pm 16.8 13.8 11.9 73 2.7 NNW 19 30 10 16 1009.5 1009.5 0.0
05/05:30pm 16.7 13.1 11.8 73 2.7 NNW 22 32 12 17 1009.5 - 0.0
05/05:00pm 16.7 13.6 12.3 75 2.4 NNW 20 33 11 18 1009.3 - 0.0
05/04:30pm 16.7 12.9 12.5 76 2.3 NNW 24 39 13 21 1009.4 - 0.0
05/04:00pm 17.0 14.0 12.5 75 2.5 NW 20 33 11 18 1009.5 - 0.0
05/03:30pm 16.8 13.1 12.7 77 2.3 NW 24 35 13 19 1009.6 - 0.0
05/03:00pm 16.4 13.5 12.8 79 2.0 NW 20 33 11 18 1009.6 1009.6 0.0
05/02:30pm 16.5 13.2 12.8 79 2.1 NW 22 35 12 19 1009.7 - 0.0
05/02:00pm 16.6 13.8 13.1 80 2.0 NW 20 33 11 18 1009.9 - 0.0
05/01:30pm 16.5 13.8 13.6 83 1.6 WNW 20 37 11 20 1009.9 - 0.0
05/01:06pm 16.8 12.7 13.7 82 1.8 NW 28 50 15 27 1010.1 - 0.0
05/01:00pm 16.9 12.3 13.4 80 2.0 NW 30 46 16 25 1010.2 - 0.0
05/12:37pm 16.5 12.3 13.4 82 1.7 NW 28 50 15 27 1010.5 - 0.0
05/12:30pm 16.5 13.1 13.8 84 1.5 NW 24 37 13 20 1010.6 - 0.0
05/12:00pm 16.4 11.9 13.7 84 1.5 NW 30 48 16 26 1010.9 1010.9 0.0
05/11:42am 16.6 12.3 13.3 81 1.9 NW 28 54 15 29 1011.1 - 0.0
05/11:30am 16.6 12.4 13.5 82 1.7 NW 28 43 15 23 1011.3 - 0.0
05/11:00am 17.5 13.9 14.2 81 1.9 NNW 26 44 14 24 1011.8 - 0.0
05/10:30am 16.4 12.3 13.9 85 1.4 NW 28 48 15 26 1012.0 - 0.0
05/10:00am 15.7 11.5 13.5 87 1.2 NW 28 50 15 27 1012.2 - 0.0
05/09:57am 15.5 11.3 13.5 88 1.1 NW 28 48 15 26 1012.1 - 0.0
05/09:30am 15.2 11.1 13.9 92 0.7 NW 28 44 15 24 1012.3 - 0.0
05/09:00am 15.7 11.6 13.7 88 1.1 NW 28 46 15 25 1012.2 1012.2 0.4
05/08:33am 14.9 10.7 13.6 92 0.7 NW 28 48 15 26 1012.3 - 0.4
05/08:30am 14.9 11.1 13.6 92 0.7 NNW 26 48 14 26 1012.2 - 0.4
05/08:00am 14.6 11.6 13.8 95 0.4 NNW 22 39 12 21 1012.2 - 0.4
05/07:30am 14.4 10.9 13.4 94 0.6 NW 24 35 13 19 1011.9 - 0.4
05/07:00am 14.7 11.8 12.9 89 1.0 NW 20 32 11 17 1011.7 - 0.4
05/06:30am 14.5 11.7 12.7 89 1.0 NW 19 28 10 15 1011.6 - 0.4
05/06:00am 14.8 12.4 12.5 86 1.3 NNW 17 28 9 15 1011.4 1011.4 0.4
05/05:30am 14.7 11.7 12.6 87 1.2 NNW 20 33 11 18 1011.2 - 0.4
05/05:00am 14.7 11.3 12.4 86 1.3 NNW 22 37 12 20 1010.8 - 0.4
05/04:30am 14.6 11.8 12.6 88 1.1 NNW 19 35 10 19 1010.7 - 0.4
05/04:00am 14.0 11.7 13.1 94 0.5 NNW 17 24 9 13 1010.8 - 0.4
05/03:30am 14.1 11.2 13.0 93 0.6 NNW 20 33 11 18 1010.7 - 0.2
05/03:00am 14.1 10.8 12.8 92 0.7 NNW 22 35 12 19 1010.6 1010.6 0.2
05/02:30am 13.8 11.0 12.7 93 0.6 NNW 19 32 10 17 1010.8 - 0.2
05/02:00am 14.4 9.5 11.2 81 1.7 NW 28 50 15 27 1010.8 - 0.2
05/01:57am 14.4 9.5 11.2 81 1.7 NW 28 50 15 27 1010.7 - 0.2
05/01:30am 14.7 10.7 10.5 76 2.2 NW 22 35 12 19 1010.6 - 0.2
05/01:00am 14.7 10.0 10.7 77 2.1 NW 26 43 14 23 1010.8 - 0.2
05/12:30am 14.6 10.3 10.8 78 2.0 NW 24 35 13 19 1010.8 - 0.2
05/12:00am 14.4 10.0 10.4 77 2.1 NW 24 35 13 19 1010.8 1010.8 0.2
 
Date/Time
EST
Temp
°C
App
Temp
°C
Dew
Point
Rel
Hum
%
Delta-T
°C
Wind Press
QNH
hPa
Press
MSL
hPa
Rain
since 9 am
mm
Dir
 
Spd
km/h
Gust
km/h
Spd
kts
Gust
kts
04/11:30pm 14.0 9.3 10.6 80 1.8 NW 26 41 14 22 1010.8 - 0.2
04/11:00pm 13.5 9.4 11.6 88 1.0 NW 24 39 13 21 1011.0 - 0.2
04/10:30pm 12.7 9.1 11.9 95 0.4 NW 22 33 12 18 1011.1 - 0.2
04/10:00pm 12.2 9.0 12.0 99 0.1 NW 20 32 11 17 1011.4 - 0.2
04/09:30pm 11.9 8.6 11.7 99 0.1 NW 20 32 11 17 1011.5 - 0.0
04/09:00pm 12.6 8.4 11.2 91 0.7 NW 24 35 13 19 1011.2 1011.2 0.0
04/08:30pm 12.3 8.4 10.9 91 0.7 NW 22 35 12 19 1011.2 - 0.0
04/08:00pm 12.5 8.0 10.0 85 1.3 NW 24 41 13 22 1011.0 - 0.0
04/07:30pm 12.4 8.7 9.4 82 1.5 NW 19 30 10 16 1010.7 - 0.0
04/07:00pm 12.5 9.3 8.6 77 1.9 NNW 15 24 8 13 1010.8 - 0.0
04/06:30pm 12.3 9.5 8.6 78 1.8 NW 13 26 7 14 1010.7 - 0.0
04/06:00pm 12.3 8.8 8.8 79 1.8 NNW 17 24 9 13 1010.7 1010.7 0.0
04/05:30pm 12.4 8.5 8.7 78 1.8 NNW 19 32 10 17 1010.5 - 0.0
04/05:00pm 12.4 9.2 8.5 77 1.9 WNW 15 22 8 12 1010.3 - 0.0
04/04:30pm 12.8 8.7 8.7 76 2.1 W 20 39 11 21 1010.2 - 0.0
04/04:00pm 13.8 10.4 7.8 67 3.0 WNW 15 24 8 13 1009.6 - 0.0
04/03:30pm 14.1 10.6 7.2 63 3.4 NW 15 24 8 13 1009.2 - 0.0
04/03:00pm 14.5 10.1 6.6 59 3.8 WNW 19 39 10 21 1009.0 1009.0 0.0
04/02:30pm 14.7 10.4 6.8 59 3.9 W 19 39 10 21 1009.2 - 0.0
04/02:00pm 14.2 9.6 5.6 56 4.1 WNW 19 39 10 21 1009.1 - 0.0
04/01:30pm 14.4 11.5 6.5 59 3.8 W 11 24 6 13 1009.4 - 0.0
04/01:00pm 14.1 10.0 6.0 58 3.9 W 17 30 9 16 1009.3 - 0.0
04/12:30pm 14.2 9.6 6.6 60 3.7 WNW 20 33 11 18 1009.4 - 0.0
04/12:00pm 13.8 9.1 5.9 59 3.8 WNW 20 37 11 20 1009.4 1009.4 0.0
04/11:30am 13.6 9.0 5.7 59 3.7 WNW 19 32 10 17 1009.5 - 0.0
04/11:00am 13.9 10.5 5.8 58 3.8 NW 13 24 7 13 1009.5 - 0.0
04/10:30am 13.0 9.1 5.2 59 3.6 NW 15 22 8 12 1009.2 - 0.0
04/10:00am 12.9 9.5 5.8 62 3.3 NNW 13 20 7 11 1009.0 - 0.0
04/09:30am 11.7 7.3 4.7 62 3.2 NNW 17 22 9 12 1008.8 - 0.0
04/09:00am 11.2 6.8 4.9 65 2.9 NNW 17 28 9 15 1008.3 1008.4 5.8
04/08:30am 10.4 5.5 4.1 65 2.8 NW 19 26 10 14 1008.2 - 5.8
04/08:00am 9.7 6.7 4.3 69 2.4 NW 9 17 5 9 1007.8 - 5.8
04/07:30am 9.0 5.9 3.6 69 2.3 NNW 9 13 5 7 1007.0 - 5.8
04/07:00am 8.3 5.4 4.5 77 1.7 WSW 9 13 5 7 1006.2 - 5.8
04/06:30am 8.8 4.0 4.8 76 1.8 NW 19 28 10 15 1005.4 - 5.8
04/06:00am 8.3 3.9 4.7 78 1.6 NW 17 26 9 14 1004.7 1004.8 5.8
04/05:30am 8.4 3.5 5.0 79 1.5 NW 20 30 11 16 1004.1 - 5.8
04/05:00am 8.3 5.1 4.9 79 1.5 W 11 24 6 13 1003.9 - 5.8
04/04:30am 8.4 4.3 4.6 77 1.7 WNW 15 28 8 15 1003.4 - 5.8
04/04:00am 9.0 4.6 5.0 76 1.8 NW 17 24 9 13 1003.0 - 5.8
04/03:30am 8.9 5.6 4.3 73 2.0 NW 11 20 6 11 1002.7 - 5.8
04/03:00am 8.5 5.9 4.1 74 1.9 W 7 15 4 8 1002.2 1002.3 5.8
04/02:30am 8.7 6.3 4.1 73 2.0 WSW 6 11 3 6 1001.6 - 5.8
04/02:00am 8.7 5.8 4.7 76 1.8 WSW 9 22 5 12 1000.9 - 5.8
04/01:30am 9.4 5.5 5.4 76 1.8 W 15 26 8 14 1000.5 - 5.8
04/01:00am 9.3 4.6 6.0 80 1.5 NW 20 33 11 18 1000.4 - 5.8
04/12:30am 9.2 4.4 5.8 79 1.6 NW 20 33 11 18 1000.2 - 5.8
04/12:00am 9.4 4.7 5.9 79 1.6 NW 20 32 11 17 999.8 999.9 5.8
 
Date/Time
EST
Temp
°C
App
Temp
°C
Dew
Point
Rel
Hum
%
Delta-T
°C
Wind Press
QNH
hPa
Press
MSL
hPa
Rain
since 9 am
mm
Dir
 
Spd
km/h
Gust
km/h
Spd
kts
Gust
kts
03/11:30pm 9.9 3.6 5.7 75 1.9 WNW 28 46 15 25 999.6 - 5.8
03/11:26pm 9.9 3.6 5.5 74 2.0 NW 28 46 15 25 999.6 - 5.8
03/11:25pm 10.0 3.7 5.6 74 2.0 NW 28 43 15 23 999.6 - 5.8
03/11:00pm 9.7 6.6 5.7 76 1.8 W 11 22 6 12 999.7 - 5.8
03/10:30pm 9.9 6.1 5.9 76 1.8 W 15 32 8 17 999.3 - 5.8
03/10:00pm 9.6 6.1 5.4 75 1.9 W 13 20 7 11 999.1 - 5.8
03/09:30pm 9.7 6.3 5.9 77 1.7 WNW 13 22 7 12 998.6 - 5.8
03/09:00pm 9.5 7.3 6.4 81 1.5 WNW 7 17 4 9 998.3 998.4 5.8
03/08:30pm 9.6 7.1 6.7 82 1.4 W 9 20 5 11 997.4 - 5.8
03/08:00pm 10.3 6.0 7.0 80 1.6 WNW 19 28 10 15 996.8 - 5.8
03/07:30pm 10.9 6.9 8.3 84 1.3 NW 19 30 10 16 996.0 - 5.8
03/07:00pm 11.1 8.1 9.2 88 1.0 WNW 15 28 8 15 995.6 - 5.8
03/06:30pm 11.6 7.2 9.0 84 1.3 WNW 22 35 12 19 994.3 - 5.8
03/06:00pm 11.9 8.7 10.1 89 0.9 NNW 17 26 9 14 993.5 993.5 5.8
03/05:30pm 11.8 9.3 11.0 95 0.4 WNW 15 30 8 16 993.1 - 5.8
03/05:00pm 11.7 9.3 11.4 98 0.2 W 15 30 8 16 991.9 - 5.8
03/04:30pm 11.8 9.5 11.6 99 0.1 WNW 15 26 8 14 991.4 - 5.6
03/04:00pm 12.2 9.9 11.6 96 0.3 WNW 15 26 8 14 990.5 - 5.2
03/03:30pm 12.6 8.5 11.5 93 0.6 WNW 24 41 13 22 990.5 - 5.2
03/03:00pm 13.5 9.6 12.1 91 0.8 WNW 24 43 13 23 990.5 990.5 5.0
03/02:30pm 13.8 9.8 13.0 95 0.4 WNW 26 44 14 24 990.7 - 5.0
03/02:00pm 13.7 10.6 13.5 99 0.1 NW 22 33 12 18 990.5 - 5.0
03/01:30pm 13.9 11.3 13.9 100 0.0 WNW 20 39 11 21 990.9 - 5.0
03/01:14pm 14.3 11.9 14.3 100 0.0 W 20 41 11 22 990.8 - 4.8
03/01:05pm 14.4 9.7 14.4 100 0.0 NW 32 56 17 30 990.7 - 4.6
03/01:04pm 14.4 9.5 14.4 100 0.0 NW 33 56 18 30 990.7 - 4.6
03/01:00pm 14.6 9.8 14.6 100 0.0 NW 33 50 18 27 990.5 - 4.4
03/12:55pm 14.6 9.4 14.6 100 0.0 NW 35 57 19 31 990.3 - 4.2
03/12:49pm 14.8 9.7 14.8 100 0.0 NW 35 57 19 31 990.3 - 3.6
03/12:47pm 14.8 9.7 14.8 100 0.0 NW 35 54 19 29 990.2 - 3.6
03/12:30pm 14.6 10.0 14.6 100 0.0 NW 32 50 17 27 990.2 - 3.2
03/12:00pm 14.9 9.8 14.9 100 0.0 NW 35 69 19 37 990.1 990.1 2.6
03/11:30am 14.7 9.9 14.7 100 0.0 NNW 33 54 18 29 990.4 - 2.4
03/11:00am 14.4 8.4 14.4 100 0.0 NW 39 67 21 36 991.1 - 2.2
03/10:30am 14.6 9.8 14.6 100 0.0 NW 33 65 18 35 991.0 - 1.4
03/10:00am 14.5 8.5 14.3 99 0.1 NW 39 63 21 34 991.5 - 0.8
03/09:30am 15.1 8.2 14.1 94 0.6 NW 43 69 23 37 991.5 - 0.2
03/09:28am 15.2 8.1 13.9 92 0.7 NW 44 69 24 37 991.5 - 0.0
03/09:00am 15.7 8.6 13.4 86 1.3 NW 43 74 23 40 991.5 991.5 1.2
03/08:47am 15.6 9.3 13.4 87 1.2 NW 39 63 21 34 991.8 - 1.2
03/08:30am 15.1 7.9 13.6 91 0.8 NW 44 69 24 37 991.9 - 1.0
03/08:06am 15.2 7.6 13.7 91 0.8 NW 46 87 25 47 992.1 - 0.4

Other Formats:

Comma delimited format used in spreadsheet applications
http://www.bom.gov.au/fwo/IDT60801/IDT60801.95981.axf

JavaScript Object Notation format (JSON) in row-major order
http://www.bom.gov.au/fwo/IDT60801/IDT60801.95981.json